Time;durP1;ratioP1;P1;durP2;ratioP2;P2;SDS_P1;SDS_P2;PMS_P1;PMS_P2;Temp;Humidity;BMP_temperature;BMP_pressure;BME280_temperature;BME280_humidity;BME280_pressure;Samples;Min_cycle;Max_cycle;Signal;HPM_P1;HPM_P2
2023/01/13 00:01:59;;;;;;;12.97;6.77;;;;;;;-142.25;100.00;58004.16;5048606;28;20045;-71
2023/01/13 00:04:25;;;;;;;11.27;5.93;;;;;;;-142.25;100.00;58004.16;5045602;28;20083;-72
2023/01/13 00:06:51;;;;;;;9.63;5.53;;;;;;;-142.25;100.00;58004.16;5051287;28;20067;-71
2023/01/13 00:09:17;;;;;;;10.80;4.27;;;;;;;-142.25;100.00;58004.16;5045423;28;20555;-72
2023/01/13 00:11:42;;;;;;;8.27;4.87;;;;;;;-142.25;100.00;58004.16;5044676;28;20045;-72
2023/01/13 00:14:08;;;;;;;10.87;5.93;;;;;;;-142.25;100.00;58004.16;5048312;28;20060;-72
2023/01/13 00:16:34;;;;;;;10.00;6.53;;;;;;;-142.25;100.00;58004.16;5045108;28;20439;-72
2023/01/13 00:18:59;;;;;;;12.90;6.40;;;;;;;-142.25;100.00;58004.16;5034359;28;20149;-73
2023/01/13 00:21:25;;;;;;;10.23;6.07;;;;;;;-142.25;100.00;58004.16;5048606;28;20144;-72
2023/01/13 00:23:53;;;;;;;9.90;6.50;;;;;;;-142.25;100.00;58004.16;5047917;28;20041;-74
2023/01/13 00:26:21;;;;;;;11.90;6.83;;;;;;;-142.25;100.00;58004.16;5047701;28;20028;-73
2023/01/13 00:28:47;;;;;;;10.97;6.30;;;;;;;-142.25;100.00;58004.16;5049739;28;20040;-72
2023/01/13 00:31:15;;;;;;;10.27;5.30;;;;;;;-142.25;100.00;58004.16;5036249;28;20090;-72
2023/01/13 00:33:41;;;;;;;10.63;5.03;;;;;;;-142.25;100.00;58004.16;5048846;28;20165;-72
2023/01/13 00:36:11;;;;;;;9.37;5.57;;;;;;;-142.25;100.00;58004.16;5047757;28;20098;-72
2023/01/13 00:38:37;;;;;;;8.60;5.13;;;;;;;-142.25;100.00;58004.16;5048354;28;20040;-72
2023/01/13 00:41:06;;;;;;;11.27;4.67;;;;;;;-142.25;100.00;58004.16;5046702;28;20056;-73
2023/01/13 00:43:34;;;;;;;13.57;6.43;;;;;;;-142.25;100.00;58004.16;5045352;28;20059;-72
2023/01/13 00:46:00;;;;;;;8.33;4.40;;;;;;;-142.25;100.00;58004.16;5044690;28;20069;-72
2023/01/13 00:48:27;;;;;;;8.73;4.50;;;;;;;-142.25;100.00;58004.16;5045241;28;20592;-72
2023/01/13 00:51:13;;;;;;;11.07;4.37;;;;;;;-142.25;100.00;58004.16;5046573;28;20119;-72
2023/01/13 00:53:42;;;;;;;8.77;5.20;;;;;;;-142.25;100.00;58004.16;5044655;28;20092;-74
2023/01/13 00:56:10;;;;;;;8.67;4.07;;;;;;;-142.25;100.00;58004.16;5051028;28;20036;-72
2023/01/13 00:58:36;;;;;;;8.17;4.83;;;;;;;-142.25;100.00;58004.16;5047124;28;20062;-72
2023/01/13 01:01:03;;;;;;;7.73;4.30;;;;;;;-142.25;100.00;58004.16;5045790;28;20048;-72
2023/01/13 01:03:29;;;;;;;6.83;4.07;;;;;;;-142.25;100.00;58004.16;5042270;28;20049;-72
2023/01/13 01:05:56;;;;;;;11.10;5.07;;;;;;;-142.25;100.00;58004.16;5042690;28;20056;-72
2023/01/13 01:08:22;;;;;;;7.60;4.53;;;;;;;-142.25;100.00;58004.16;5043678;28;20083;-72
2023/01/13 01:10:48;;;;;;;11.40;4.50;;;;;;;-142.25;100.00;58004.16;5043429;28;20658;-72
2023/01/13 01:13:16;;;;;;;7.30;4.97;;;;;;;-142.25;100.00;58004.16;5043791;28;20045;-72
2023/01/13 01:15:50;;;;;;;13.93;7.07;;;;;;;-142.25;100.00;58004.16;5043619;28;20456;-72
2023/01/13 01:18:16;;;;;;;14.50;6.82;;;;;;;-142.25;100.00;58004.16;5049486;28;20096;-72
2023/01/13 01:20:41;;;;;;;14.57;7.03;;;;;;;-142.25;100.00;58004.16;5044502;28;20057;-73
2023/01/13 01:23:07;;;;;;;22.10;8.73;;;;;;;-142.25;100.00;58004.16;5042200;28;20069;-72
2023/01/13 01:25:33;;;;;;;18.33;7.67;;;;;;;-142.25;100.00;58004.16;5041283;28;20114;-73
2023/01/13 01:27:59;;;;;;;18.60;7.70;;;;;;;-142.25;100.00;58004.16;5044434;28;20029;-72
2023/01/13 01:30:25;;;;;;;12.07;5.20;;;;;;;-142.25;100.00;58004.16;5050240;28;20136;-72
2023/01/13 01:32:51;;;;;;;7.50;4.13;;;;;;;-142.25;100.00;58004.16;5049013;28;20191;-72
2023/01/13 01:35:17;;;;;;;8.67;4.17;;;;;;;-142.25;100.00;58004.16;5040331;28;20101;-72
2023/01/13 01:37:42;;;;;;;5.93;3.90;;;;;;;-142.25;100.00;58004.16;5044546;28;20064;-72
2023/01/13 01:40:09;;;;;;;5.83;3.67;;;;;;;-142.25;100.00;58004.16;5054877;28;20037;-72
2023/01/13 01:45:22;;;;;;;7.80;4.70;;;;;;;-142.25;100.00;58004.16;5045494;28;20041;-72
2023/01/13 01:47:57;;;;;;;4.90;3.43;;;;;;;-142.25;100.00;58004.16;5043685;28;20087;-74
2023/01/13 01:50:23;;;;;;;5.90;3.85;;;;;;;-142.25;100.00;58004.16;5043305;28;20626;-71
2023/01/13 01:52:54;;;;;;;5.90;4.03;;;;;;;-142.25;100.00;58004.16;5046924;28;20052;-71
2023/01/13 01:55:25;;;;;;;8.03;4.60;;;;;;;-142.25;100.00;58004.16;5043478;28;20068;-72
2023/01/13 01:58:06;;;;;;;6.40;3.93;;;;;;;-142.25;100.00;58004.16;5045226;28;20079;-72
2023/01/13 02:00:32;;;;;;;11.60;5.07;;;;;;;-142.25;100.00;58004.16;5044793;28;20357;-72
2023/01/13 02:02:58;;;;;;;8.13;4.13;;;;;;;-142.25;100.00;58004.16;5042030;28;20044;-72
2023/01/13 02:05:25;;;;;;;9.37;4.47;;;;;;;-142.25;100.00;58004.16;5039592;28;20470;-73
2023/01/13 02:07:53;;;;;;;4.63;3.17;;;;;;;-142.25;100.00;58004.16;5041982;28;20112;-72
2023/01/13 02:10:22;;;;;;;8.07;3.63;;;;;;;-142.25;100.00;58004.16;5041612;28;20071;-72
2023/01/13 02:12:49;;;;;;;4.77;3.63;;;;;;;-142.25;100.00;58004.16;5042441;28;20100;-72
2023/01/13 02:15:27;;;;;;;7.03;3.67;;;;;;;-142.25;100.00;58004.16;5040060;28;20037;-72
2023/01/13 02:18:08;;;;;;;7.57;3.80;;;;;;;-142.25;100.00;58004.16;5041677;28;20053;-72
2023/01/13 02:20:58;;;;;;;6.57;4.03;;;;;;;-142.25;100.00;58004.16;5043479;28;20033;-72
2023/01/13 02:27:02;;;;;;;5.53;3.47;;;;;;;-142.25;100.00;58004.16;5040056;28;20540;-72
2023/01/13 02:32:52;;;;;;;4.53;3.43;;;;;;;-142.25;100.00;58004.16;5044056;28;20053;-72
2023/01/13 02:35:42;;;;;;;5.40;4.27;;;;;;;-142.25;100.00;58004.16;5042372;28;20148;-72
2023/01/13 02:38:12;;;;;;;5.30;2.50;;;;;;;-142.25;100.00;58004.16;5040700;28;20468;-72
2023/01/13 02:40:58;;;;;;;3.97;2.27;;;;;;;-142.25;100.00;58004.16;5048926;28;20721;-72
2023/01/13 02:46:36;;;;;;;;;;;;;;;-142.25;100.00;58004.16;5041892;28;20619;-73
2023/01/13 02:49:07;;;;;;;3.67;2.17;;;;;;;-142.25;100.00;58004.16;5047073;28;19989;-71
2023/01/13 02:52:06;;;;;;;3.50;1.93;;;;;;;-142.25;100.00;58004.16;5041139;28;20048;-71
2023/01/13 02:55:02;;;;;;;4.03;2.10;;;;;;;-142.25;100.00;58004.16;5041845;28;20505;-71
2023/01/13 02:57:35;;;;;;;2.73;1.90;;;;;;;-142.25;100.00;58004.16;5041189;28;20063;-71
2023/01/13 03:00:06;;;;;;;4.70;2.80;;;;;;;-142.25;100.00;58004.16;5039922;28;20377;-71
2023/01/13 03:02:32;;;;;;;4.70;1.80;;;;;;;-142.25;100.00;58004.16;5042205;28;20515;-69
2023/01/13 03:05:04;;;;;;;3.20;2.33;;;;;;;-142.25;100.00;58004.16;5040956;28;20055;-73
2023/01/13 03:07:39;;;;;;;3.23;2.07;;;;;;;-142.25;100.00;58004.16;5044795;28;20045;-70
2023/01/13 03:10:26;;;;;;;7.03;2.20;;;;;;;-142.25;100.00;58004.16;5044524;28;20044;-70
2023/01/13 03:13:09;;;;;;;5.30;2.50;;;;;;;-142.25;100.00;58004.16;5045770;28;20094;-72
2023/01/13 03:16:01;;;;;;;2.67;2.33;;;;;;;-142.25;100.00;58004.16;5044562;28;20079;-68
2023/01/13 03:18:35;;;;;;;4.27;2.50;;;;;;;-142.25;100.00;58004.16;5042782;28;20053;-70
2023/01/13 03:21:22;;;;;;;2.63;2.27;;;;;;;-142.25;100.00;58004.16;5046718;28;20052;-70
2023/01/13 03:23:59;;;;;;;4.23;2.67;;;;;;;-142.25;100.00;58004.16;5047510;28;20625;-70
2023/01/13 03:26:35;;;;;;;5.43;3.00;;;;;;;-142.25;100.00;58004.16;5051215;28;20083;-70
2023/01/13 03:29:22;;;;;;;3.10;2.70;;;;;;;-142.25;100.00;58004.16;5046569;28;20085;-70
2023/01/13 03:32:00;;;;;;;3.07;2.53;;;;;;;-142.25;100.00;58004.16;5042961;28;20030;-70
2023/01/13 03:34:33;;;;;;;4.33;2.17;;;;;;;-142.25;100.00;58004.16;5044239;28;20042;-70
2023/01/13 03:37:02;;;;;;;4.60;2.77;;;;;;;-142.25;100.00;58004.16;5043063;28;20347;-70
2023/01/13 03:39:33;;;;;;;5.33;2.93;;;;;;;-142.25;100.00;58004.16;5044778;28;20107;-71
2023/01/13 03:42:27;;;;;;;4.17;2.90;;;;;;;-142.25;100.00;58004.16;5044641;28;20033;-71
2023/01/13 03:45:09;;;;;;;6.67;3.00;;;;;;;-142.25;100.00;58004.16;5041863;28;20057;-70
2023/01/13 03:47:40;;;;;;;5.13;2.93;;;;;;;-142.25;100.00;58004.16;5044843;28;20123;-71
2023/01/13 03:50:18;;;;;;;5.00;3.10;;;;;;;-142.25;100.00;58004.16;5043561;28;20197;-71
2023/01/13 03:52:57;;;;;;;7.10;2.70;;;;;;;-142.25;100.00;58004.16;5045935;28;20056;-71
2023/01/13 03:55:31;;;;;;;4.50;2.50;;;;;;;-142.25;100.00;58004.16;5046186;28;20047;-71
2023/01/13 03:58:05;;;;;;;6.70;4.43;;;;;;;-142.25;100.00;58004.16;5040983;28;20037;-64
2023/01/13 04:00:39;;;;;;;7.17;4.03;;;;;;;-142.25;100.00;58004.16;5043017;28;20041;-70
2023/01/13 04:03:21;;;;;;;7.63;4.20;;;;;;;-142.25;100.00;58004.16;5040668;28;20175;-70
2023/01/13 04:05:53;;;;;;;5.73;3.20;;;;;;;-142.25;100.00;58004.16;5040457;28;20132;-71
2023/01/13 04:08:24;;;;;;;5.97;3.63;;;;;;;-142.25;100.00;58004.16;5036868;28;20029;-70
2023/01/13 04:11:05;;;;;;;10.07;4.60;;;;;;;-142.25;100.00;58004.16;5043453;28;20567;-70
2023/01/13 04:13:35;;;;;;;7.37;3.10;;;;;;;-142.25;100.00;58004.16;5043166;28;20059;-69
2023/01/13 04:16:04;;;;;;;8.37;4.07;;;;;;;-142.25;100.00;58004.16;5041372;28;20079;-70
2023/01/13 04:18:30;;;;;;;5.77;3.43;;;;;;;-142.25;100.00;58004.16;5040892;28;20498;-71
2023/01/13 04:20:59;;;;;;;4.60;2.93;;;;;;;-142.25;100.00;58004.16;5043749;28;20398;-67
2023/01/13 04:23:26;;;;;;;5.20;2.73;;;;;;;-142.25;100.00;58004.16;5040806;28;20136;-69
2023/01/13 04:25:53;;;;;;;4.97;3.00;;;;;;;-142.25;100.00;58004.16;5040985;28;20047;-69
2023/01/13 04:28:19;;;;;;;5.00;3.20;;;;;;;-142.25;100.00;58004.16;5048729;28;20047;-70
2023/01/13 04:30:47;;;;;;;4.17;2.00;;;;;;;-142.25;100.00;58004.16;5052092;28;20079;-73
2023/01/13 04:33:18;;;;;;;25.73;9.73;;;;;;;-142.25;100.00;58004.16;5049176;28;20037;-72
2023/01/13 04:35:45;;;;;;;31.47;12.27;;;;;;;-142.25;100.00;58004.16;5046244;28;20045;-72
2023/01/13 04:38:13;;;;;;;33.73;13.63;;;;;;;-142.25;100.00;58004.16;5046678;28;20413;-72
2023/01/13 04:40:43;;;;;;;25.83;10.77;;;;;;;-142.25;100.00;58004.16;5048430;28;20041;-72
2023/01/13 04:43:09;;;;;;;18.53;8.13;;;;;;;-142.25;100.00;58004.16;5047383;28;20064;-71
2023/01/13 04:45:34;;;;;;;17.93;8.93;;;;;;;-142.25;100.00;58004.16;5047565;28;20400;-72
2023/01/13 04:48:00;;;;;;;13.70;6.87;;;;;;;-142.25;100.00;58004.16;5047071;28;20054;-71
2023/01/13 04:50:26;;;;;;;4.17;2.60;;;;;;;-142.25;100.00;58004.16;5043555;28;20056;-72
2023/01/13 04:52:56;;;;;;;3.37;2.10;;;;;;;-142.25;100.00;58004.16;5048912;28;20049;-71
2023/01/13 04:55:24;;;;;;;3.63;2.30;;;;;;;-142.25;100.00;58004.16;5049605;28;20207;-72
2023/01/13 04:57:50;;;;;;;2.67;1.90;;;;;;;-142.25;100.00;58004.16;5052634;28;20485;-71
2023/01/13 05:00:23;;;;;;;3.23;1.73;;;;;;;-142.25;100.00;58004.16;5052489;28;20482;-73
2023/01/13 05:02:50;;;;;;;3.70;1.60;;;;;;;-142.25;100.00;58004.16;5049130;28;20041;-72
2023/01/13 05:05:16;;;;;;;2.07;1.60;;;;;;;-142.25;100.00;58004.16;5044509;28;20103;-71
2023/01/13 05:07:42;;;;;;;3.20;1.70;;;;;;;-142.25;100.00;58004.16;5045015;28;20115;-71
2023/01/13 05:10:14;;;;;;;2.80;1.60;;;;;;;-142.25;100.00;58004.16;5050712;28;20032;-72
2023/01/13 05:18:08;;;;;;;2.60;2.07;;;;;;;-142.25;100.00;58004.16;5045564;28;20783;-73
2023/01/13 05:20:47;;;;;;;3.13;1.97;;;;;;;-142.25;100.00;58004.16;5045685;28;20028;-73
2023/01/13 05:26:17;;;;;;;3.67;2.00;;;;;;;-142.25;100.00;58004.16;5047852;28;20439;-72
2023/01/13 05:29:06;;;;;;;2.10;1.90;;;;;;;-142.25;100.00;58004.16;5049372;28;20148;-72
2023/01/13 05:31:38;;;;;;;1.63;1.53;;;;;;;-142.25;100.00;58004.16;5035444;28;20055;-72
2023/01/13 05:35:00;;;;;;;6.70;2.03;;;;;;;-142.25;100.00;58004.16;5042506;28;20037;-72
2023/01/13 05:37:41;;;;;;;3.83;1.90;;;;;;;-142.25;100.00;58004.16;5039280;28;20048;-72
2023/01/13 05:43:26;;;;;;;4.30;2.60;;;;;;;-142.25;100.00;58004.16;5042298;28;20518;-73
2023/01/13 05:45:58;;;;;;;3.97;2.80;;;;;;;-142.25;100.00;58004.16;5048098;28;20036;-71
2023/01/13 05:48:32;;;;;;;5.60;3.33;;;;;;;-142.25;100.00;58004.16;5043858;28;20110;-72
2023/01/13 05:51:03;;;;;;;5.25;2.85;;;;;;;-142.25;100.00;58004.16;5044554;28;20094;-70
2023/01/13 05:53:29;;;;;;;5.73;3.83;;;;;;;-142.25;100.00;58004.16;5040838;28;20050;-72
2023/01/13 05:55:58;;;;;;;11.13;6.93;;;;;;;-142.25;100.00;58004.16;5035384;28;20063;-64
2023/01/13 05:58:26;;;;;;;10.47;7.37;;;;;;;-142.25;100.00;58004.16;5039626;28;20080;-65
2023/01/13 06:00:55;;;;;;;11.30;6.70;;;;;;;-142.25;100.00;58004.16;5046057;28;20504;-63
2023/01/13 06:03:21;;;;;;;6.83;5.10;;;;;;;-142.25;100.00;58004.16;5042616;28;20051;-64
2023/01/13 06:05:47;;;;;;;4.83;3.37;;;;;;;-142.25;100.00;58004.16;5045011;28;20048;-66
2023/01/13 06:08:26;;;;;;;6.17;4.10;;;;;;;-142.25;100.00;58004.16;5044390;28;20037;-70
2023/01/13 06:10:57;;;;;;;5.20;3.50;;;;;;;-142.25;100.00;58004.16;5046894;28;20140;-66
2023/01/13 06:13:29;;;;;;;7.18;2.90;;;;;;;-142.25;100.00;58004.16;5046814;28;20569;-70
2023/01/13 06:15:58;;;;;;;4.50;2.60;;;;;;;-142.25;100.00;58004.16;5047282;28;20091;-71
2023/01/13 06:18:27;;;;;;;3.77;3.03;;;;;;;-142.25;100.00;58004.16;5047219;28;20053;-69
2023/01/13 06:20:53;;;;;;;7.50;3.40;;;;;;;-142.25;100.00;58004.16;5046647;28;20043;-73
2023/01/13 06:23:19;;;;;;;3.17;2.83;;;;;;;-142.25;100.00;58004.16;5042978;28;20551;-71
2023/01/13 06:26:08;;;;;;;8.07;3.33;;;;;;;-142.25;100.00;58004.16;5044377;28;20428;-71
2023/01/13 06:28:36;;;;;;;5.20;3.30;;;;;;;-142.25;100.00;58004.16;5043563;28;20075;-73
2023/01/13 06:31:06;;;;;;;3.60;2.20;;;;;;;-142.25;100.00;58004.16;5043655;28;20041;-72
2023/01/13 06:33:36;;;;;;;6.00;3.07;;;;;;;-142.25;100.00;58004.16;5023894;28;20025;-73
2023/01/13 06:36:09;;;;;;;7.10;3.20;;;;;;;-142.25;100.00;58004.16;5041303;28;20624;-73
2023/01/13 06:38:38;;;;;;;4.33;2.80;;;;;;;-142.25;100.00;58004.16;5035385;28;20036;-71
2023/01/13 06:41:06;;;;;;;7.37;3.60;;;;;;;-142.25;100.00;58004.16;5041976;28;20124;-73
2023/01/13 06:43:34;;;;;;;5.20;3.00;;;;;;;-142.25;100.00;58004.16;5033274;28;20076;-72
2023/01/13 06:46:01;;;;;;;3.87;2.90;;;;;;;-142.25;100.00;58004.16;5043146;28;20041;-72
2023/01/13 06:48:31;;;;;;;3.40;2.80;;;;;;;-142.25;100.00;58004.16;5043953;28;20057;-72
2023/01/13 06:50:58;;;;;;;5.67;2.47;;;;;;;-142.25;100.00;58004.16;5044609;28;20041;-70
2023/01/13 06:53:29;;;;;;;4.00;3.13;;;;;;;-142.25;100.00;58004.16;5043597;28;20052;-72
2023/01/13 06:55:54;;;;;;;3.33;2.40;;;;;;;-142.25;100.00;58004.16;5043822;28;20041;-72
2023/01/13 06:58:20;;;;;;;4.83;2.67;;;;;;;-142.25;100.00;58004.16;5043334;28;20047;-70
2023/01/13 07:00:50;;;;;;;2.93;2.30;;;;;;;-142.25;100.00;58004.16;5042692;28;20048;-72
2023/01/13 07:03:17;;;;;;;3.20;2.70;;;;;;;-142.25;100.00;58004.16;5044348;28;20082;-72
2023/01/13 07:05:51;;;;;;;4.10;2.13;;;;;;;-142.25;100.00;58004.16;5043848;28;20494;-72
2023/01/13 07:08:16;;;;;;;8.23;3.07;;;;;;;-142.25;100.00;58004.16;5042850;28;20037;-71
2023/01/13 07:10:42;;;;;;;7.90;4.80;;;;;;;-142.25;100.00;58004.16;5040288;28;20036;-71
2023/01/13 07:15:56;;;;;;;12.27;6.23;;;;;;;-142.25;100.00;58004.16;5043478;28;20045;-69
2023/01/13 07:18:23;;;;;;;11.70;6.53;;;;;;;-142.25;100.00;58004.16;5041831;28;20399;-71
2023/01/13 07:21:06;;;;;;;11.57;6.30;;;;;;;-142.25;100.00;58004.16;5040604;28;20042;-70
2023/01/13 07:23:33;;;;;;;10.13;5.67;;;;;;;-142.25;100.00;58004.16;5040076;28;20107;-71
2023/01/13 07:25:59;;;;;;;11.40;5.77;;;;;;;-142.25;100.00;58004.16;5040373;28;20566;-71
2023/01/13 07:28:26;;;;;;;10.50;5.87;;;;;;;-142.25;100.00;58004.16;5042874;28;20045;-71
2023/01/13 07:30:52;;;;;;;10.30;5.70;;;;;;;-142.25;100.00;58004.16;5039637;28;20064;-70
2023/01/13 07:33:18;;;;;;;12.30;6.90;;;;;;;-142.25;100.00;58004.16;5042661;28;20044;-70
2023/01/13 07:35:45;;;;;;;10.50;5.70;;;;;;;-142.25;100.00;58004.16;5041115;28;20052;-69
2023/01/13 07:38:10;;;;;;;8.30;5.87;;;;;;;-142.25;100.00;58004.16;5041498;28;20035;-69
2023/01/13 07:40:36;;;;;;;8.83;4.90;;;;;;;-142.25;100.00;58004.16;5042184;28;20379;-70
2023/01/13 07:45:46;;;;;;;5.83;3.63;;;;;;;-142.25;100.00;58004.16;5040200;28;20115;-72
2023/01/13 07:48:12;;;;;;;5.93;4.17;;;;;;;-142.25;100.00;58004.16;5042862;28;20045;-70
2023/01/13 07:50:38;;;;;;;7.30;5.23;;;;;;;-142.25;100.00;58004.16;5039167;28;20045;-71
2023/01/13 07:53:03;;;;;;;8.87;6.53;;;;;;;-142.25;100.00;58004.16;5035597;28;20045;-72
2023/01/13 07:55:29;;;;;;;13.20;7.67;;;;;;;-142.25;100.00;58004.16;5040376;28;20099;-70
2023/01/13 07:57:55;;;;;;;13.60;9.63;;;;;;;-142.25;100.00;58004.16;5040180;28;20032;-70
2023/01/13 08:00:21;;;;;;;16.70;9.83;;;;;;;-142.25;100.00;58004.16;5036384;28;20853;-70
2023/01/13 08:02:46;;;;;;;17.03;10.67;;;;;;;-142.25;100.00;58004.16;5043618;28;20040;-72
2023/01/13 08:05:12;;;;;;;19.90;9.23;;;;;;;-142.25;100.00;58004.16;5046163;28;20044;-72
2023/01/13 08:07:39;;;;;;;13.63;8.37;;;;;;;-142.25;100.00;58004.16;5045024;28;20167;-72
2023/01/13 08:10:05;;;;;;;13.23;8.97;;;;;;;-142.25;100.00;58004.16;5023329;28;20045;-72
2023/01/13 08:15:16;;;;;;;25.23;12.20;;;;;;;-142.25;100.00;58004.16;5043724;28;20570;-72
2023/01/13 08:17:41;;;;;;;25.67;12.17;;;;;;;-142.25;100.00;58004.16;5041690;28;20164;-72
2023/01/13 08:20:08;;;;;;;23.27;9.57;;;;;;;-142.25;100.00;58004.16;5043334;28;20588;-71
2023/01/13 08:22:33;;;;;;;7.53;4.90;;;;;;;-142.25;100.00;58004.16;5046392;28;20499;-72
2023/01/13 08:24:59;;;;;;;8.20;4.77;;;;;;;-142.25;100.00;58004.16;5049208;28;20649;-72
2023/01/13 08:27:25;;;;;;;9.20;4.53;;;;;;;-142.25;100.00;58004.16;5043717;28;20148;-72
2023/01/13 08:29:50;;;;;;;9.40;5.20;;;;;;;-142.25;100.00;58004.16;5044333;28;20051;-71
2023/01/13 08:32:16;;;;;;;45.20;7.63;;;;;;;-142.25;100.00;58004.16;5047339;28;20538;-72
2023/01/13 08:34:41;;;;;;;26.97;6.07;;;;;;;-142.25;100.00;58004.16;5050942;28;20045;-70
2023/01/13 08:37:07;;;;;;;11.53;5.20;;;;;;;-142.25;100.00;58004.16;5042009;28;20045;-71
2023/01/13 08:39:34;;;;;;;12.33;4.70;;;;;;;-142.25;100.00;58004.16;5039178;28;20049;-72
2023/01/13 08:42:01;;;;;;;8.47;3.87;;;;;;;-142.25;100.00;58004.16;5042098;28;20053;-72
2023/01/13 08:44:29;;;;;;;10.30;4.63;;;;;;;-142.25;100.00;58004.16;5046806;28;20483;-71
2023/01/13 08:46:56;;;;;;;7.83;4.13;;;;;;;-142.25;100.00;58004.16;5043842;28;20497;-70
2023/01/13 08:49:23;;;;;;;6.40;3.63;;;;;;;-142.25;100.00;58004.16;5045447;28;20525;-71
2023/01/13 08:51:49;;;;;;;5.77;3.77;;;;;;;-142.25;100.00;58004.16;5043840;28;20120;-72
2023/01/13 08:54:16;;;;;;;22.47;15.53;;;;;;;-142.25;100.00;58004.16;5031817;28;20066;-71
2023/01/13 08:56:45;;;;;;;17.70;12.37;;;;;;;-142.25;100.00;58004.16;5041271;28;20451;-72
2023/01/13 08:59:16;;;;;;;10.87;6.37;;;;;;;-142.25;100.00;58004.16;5042267;28;20463;-73
2023/01/13 09:01:43;;;;;;;22.50;9.20;;;;;;;-142.25;100.00;58004.16;5039007;28;20232;-72
2023/01/13 09:04:21;;;;;;;18.83;8.43;;;;;;;-142.25;100.00;58004.16;5041978;28;20124;-72
2023/01/13 09:06:48;;;;;;;14.00;7.00;;;;;;;-142.25;100.00;58004.16;5046045;28;20480;-71
2023/01/13 09:09:13;;;;;;;15.93;8.07;;;;;;;-142.25;100.00;58004.16;5047710;28;20049;-71
2023/01/13 09:14:29;;;;;;;10.13;6.00;;;;;;;-142.25;100.00;58004.16;5047829;28;20111;-72
2023/01/13 09:16:54;;;;;;;14.60;6.33;;;;;;;-142.25;100.00;58004.16;5046095;28;20029;-72
2023/01/13 09:19:20;;;;;;;14.13;6.43;;;;;;;-142.25;100.00;58004.16;5042050;28;20053;-72
2023/01/13 09:21:45;;;;;;;14.70;6.37;;;;;;;-142.25;100.00;58004.16;5044791;28;20045;-72
2023/01/13 09:24:11;;;;;;;15.43;5.47;;;;;;;-142.25;100.00;58004.16;5041912;28;20041;-71
2023/01/13 09:26:37;;;;;;;11.80;5.93;;;;;;;-142.25;100.00;58004.16;5042304;28;20052;-72
2023/01/13 09:29:03;;;;;;;12.40;5.60;;;;;;;-142.25;100.00;58004.16;5047277;28;20056;-71
2023/01/13 09:31:33;;;;;;;18.77;5.73;;;;;;;-142.25;100.00;58004.16;5046030;28;20135;-72
2023/01/13 09:36:44;;;;;;;10.63;5.70;;;;;;;-142.25;100.00;58004.16;5032697;28;20106;-72
2023/01/13 09:39:10;;;;;;;11.40;5.80;;;;;;;-142.25;100.00;58004.16;5047748;28;20131;-71
2023/01/13 09:44:47;;;;;;;11.77;6.10;;;;;;;-142.25;100.00;58004.16;5041589;28;20045;-70
2023/01/13 09:47:30;;;;;;;10.83;5.80;;;;;;;-142.25;100.00;58004.16;5046784;28;20065;-72
2023/01/13 09:50:16;;;;;;;11.67;6.13;;;;;;;-142.25;100.00;58004.16;5045688;28;20048;-72
2023/01/13 09:52:42;;;;;;;11.27;5.70;;;;;;;-142.25;100.00;58004.16;5040868;28;20041;-71
2023/01/13 09:55:14;;;;;;;9.47;5.47;;;;;;;-142.25;100.00;58004.16;5045322;28;20084;-73
2023/01/13 09:57:40;;;;;;;11.53;6.17;;;;;;;-142.25;100.00;58004.16;5043849;28;20106;-72
2023/01/13 10:00:12;;;;;;;9.03;5.27;;;;;;;-142.25;100.00;58004.16;5042732;28;20048;-72
2023/01/13 10:03:10;;;;;;;8.20;5.07;;;;;;;-142.25;100.00;58004.16;5038203;28;20049;-72
2023/01/13 10:05:40;;;;;;;11.50;4.53;;;;;;;-142.25;100.00;58004.16;4986779;28;20053;-72
2023/01/13 10:08:39;;;;;;;7.97;4.80;;;;;;;-142.25;100.00;58004.16;4969890;28;20450;-70
2023/01/13 10:14:31;;;;;;;13.70;6.17;;;;;;;-142.25;100.00;58004.16;4987593;28;20042;-74
2023/01/13 10:17:27;;;;;;;10.70;4.40;;;;;;;-142.25;100.00;58004.16;4981848;28;20124;-72
2023/01/13 10:20:15;;;;;;;7.30;3.77;;;;;;;-142.25;100.00;58004.16;4989670;28;20050;-73
2023/01/13 10:23:00;;;;;;;10.83;4.83;;;;;;;-142.25;100.00;58004.16;4969636;28;20204;-72
2023/01/13 10:25:35;;;;;;;8.32;4.63;;;;;;;-142.25;100.00;58004.16;4963080;28;20387;-70
2023/01/13 10:28:09;;;;;;;7.47;5.33;;;;;;;-142.25;100.00;58004.16;4988294;28;20045;-72
2023/01/13 10:30:38;;;;;;;9.03;4.77;;;;;;;-142.25;100.00;58004.16;4991220;28;20050;-73
2023/01/13 10:33:13;;;;;;;12.90;5.60;;;;;;;-142.25;100.00;58004.16;4988944;28;20054;-74
2023/01/13 10:36:01;;;;;;;11.82;5.47;;;;;;;-142.25;100.00;58004.16;4988348;28;20046;-68
2023/01/13 10:38:34;;;;;;;14.25;6.40;;;;;;;-142.25;100.00;58004.16;4980652;28;20572;-72
2023/01/13 10:41:02;;;;;;;10.65;5.38;;;;;;;-142.25;100.00;58004.16;4984082;28;20058;-68
2023/01/13 10:43:29;;;;;;;9.77;5.15;;;;;;;-142.25;100.00;58004.16;5034585;28;20438;-69
2023/01/13 10:45:58;;;;;;;10.90;6.18;;;;;;;-142.25;100.00;58004.16;5038748;28;20451;-69
2023/01/13 10:48:32;;;;;;;7.80;5.13;;;;;;;-142.25;100.00;58004.16;5041326;28;20032;-68
2023/01/13 10:51:10;;;;;;;9.13;5.22;;;;;;;-142.25;100.00;58004.16;5040642;28;20048;-69
2023/01/13 10:53:54;;;;;;;10.55;6.88;;;;;;;-142.25;100.00;58004.16;5036337;28;20056;-68
2023/01/13 10:56:22;;;;;;;10.70;6.55;;;;;;;-142.25;100.00;58004.16;5045714;28;20052;-69
2023/01/13 10:58:48;;;;;;;16.17;9.23;;;;;;;-142.25;100.00;58004.16;5042210;28;20048;-69
2023/01/13 11:01:25;;;;;;;11.52;7.32;;;;;;;-142.25;100.00;58004.16;5045619;28;20044;-70
2023/01/13 11:03:52;;;;;;;11.13;6.80;;;;;;;-142.25;100.00;58004.16;5039331;28;20713;-69
2023/01/13 11:06:29;;;;;;;10.57;7.57;;;;;;;-142.25;100.00;58004.16;5042498;28;20147;-69
2023/01/13 11:09:01;;;;;;;10.65;6.88;;;;;;;-142.25;100.00;58004.16;5041257;28;20348;-70
2023/01/13 11:11:40;;;;;;;12.95;7.80;;;;;;;-142.25;100.00;58004.16;5040959;28;20043;-69
2023/01/13 11:14:38;;;;;;;12.65;7.43;;;;;;;-142.25;100.00;58004.16;5042559;28;20163;-70
2023/01/13 11:17:19;;;;;;;14.85;9.65;;;;;;;-142.25;100.00;58004.16;5033491;28;20053;-69
2023/01/13 11:19:56;;;;;;;13.05;8.65;;;;;;;-142.25;100.00;58004.16;5042189;28;20159;-69
2023/01/13 11:22:31;;;;;;;12.32;8.10;;;;;;;-142.25;100.00;58004.16;5041558;28;20739;-69
2023/01/13 11:25:00;;;;;;;16.00;8.80;;;;;;;-142.25;100.00;58004.16;5040279;28;20079;-68
2023/01/13 11:27:47;;;;;;;15.07;8.02;;;;;;;-142.25;100.00;58004.16;5043176;28;20044;-70
2023/01/13 11:30:25;;;;;;;12.40;8.27;;;;;;;-142.25;100.00;58004.16;5042587;28;20468;-69
2023/01/13 11:33:09;;;;;;;14.38;11.80;;;;;;;-142.25;100.00;58004.16;5039820;28;20072;-69
2023/01/13 11:35:46;;;;;;;20.50;12.65;;;;;;;-142.25;100.00;58004.16;5045188;28;20040;-69
2023/01/13 11:38:27;;;;;;;23.92;12.48;;;;;;;-142.25;100.00;58004.16;5048220;28;20467;-69
2023/01/13 11:41:00;;;;;;;17.95;11.10;;;;;;;-142.25;100.00;58004.16;5048902;28;20042;-70
2023/01/13 11:43:46;;;;;;;15.68;9.98;;;;;;;-142.25;100.00;58004.16;5050968;28;20037;-69
2023/01/13 11:46:12;;;;;;;16.23;10.15;;;;;;;-142.25;100.00;58004.16;5052954;28;20045;-69
2023/01/13 11:48:40;;;;;;;18.55;11.02;;;;;;;-142.25;100.00;58004.16;5047450;28;20067;-71
2023/01/13 11:51:12;;;;;;;17.67;12.05;;;;;;;-142.25;100.00;58004.16;5044777;28;20189;-69
2023/01/13 11:53:51;;;;;;;20.58;12.30;;;;;;;-142.25;100.00;58004.16;5043513;28;20129;-69
2023/01/13 11:56:28;;;;;;;17.30;11.90;;;;;;;-142.25;100.00;58004.16;5049207;28;20063;-69
2023/01/13 11:59:26;;;;;;;18.38;13.27;;;;;;;-142.25;100.00;58004.16;5048485;28;20043;-69
2023/01/13 12:02:00;;;;;;;18.33;11.98;;;;;;;-142.25;100.00;58004.16;4962674;28;20086;-70
2023/01/13 12:04:35;;;;;;;17.27;11.77;;;;;;;-142.25;100.00;58004.16;4962709;28;20055;-69
2023/01/13 12:07:17;;;;;;;15.93;12.23;;;;;;;-142.25;100.00;58004.16;4961522;28;20054;-69
2023/01/13 12:09:50;;;;;;;15.40;12.10;;;;;;;-142.25;100.00;58004.16;4962931;28;20046;-69